createdAt,value
2017-05-17T00:00:34.285Z,0
2017-05-17T00:01:14.879Z,0
2017-05-17T00:01:55.454Z,0
2017-05-17T00:02:36.051Z,0
2017-05-17T00:03:16.629Z,0
2017-05-17T00:03:57.219Z,0
2017-05-17T00:04:37.814Z,0
2017-05-17T00:05:18.437Z,0
2017-05-17T00:05:59.044Z,0
2017-05-17T00:06:39.646Z,0
2017-05-17T00:07:20.237Z,0
2017-05-17T00:08:00.827Z,0
2017-05-17T00:08:41.422Z,0
2017-05-17T00:09:22.014Z,0
2017-05-17T00:10:02.607Z,0
2017-05-17T00:10:43.204Z,0
2017-05-17T00:11:23.808Z,0
2017-05-17T00:12:04.403Z,0
2017-05-17T00:12:44.999Z,0
2017-05-17T00:13:25.615Z,0
2017-05-17T00:14:06.209Z,0
2017-05-17T00:14:46.810Z,0
2017-05-17T00:15:27.378Z,0
2017-05-17T00:16:07.955Z,0
2017-05-17T00:16:48.543Z,0
2017-05-17T00:17:29.202Z,0
2017-05-17T00:18:09.793Z,0
2017-05-17T00:18:50.362Z,0
2017-05-17T00:19:30.975Z,0
2017-05-17T00:20:11.578Z,0
2017-05-17T00:20:52.174Z,0
2017-05-17T00:21:32.748Z,0
2017-05-17T00:22:13.332Z,0
2017-05-17T00:22:53.924Z,0
2017-05-17T00:23:34.536Z,0
2017-05-17T00:24:15.122Z,0
2017-05-17T00:24:55.707Z,0
2017-05-17T00:25:36.327Z,0
2017-05-17T00:26:16.937Z,0
2017-05-17T00:26:57.545Z,0
2017-05-17T00:27:38.121Z,0
2017-05-17T00:28:18.715Z,0
2017-05-17T00:28:59.298Z,0
2017-05-17T00:29:39.895Z,0
2017-05-17T00:30:20.509Z,0
2017-05-17T00:31:01.084Z,0
2017-05-17T00:31:41.676Z,0
2017-05-17T00:32:22.245Z,0
2017-05-17T00:33:02.835Z,0
2017-05-17T00:33:43.406Z,0
2017-05-17T00:34:23.998Z,0
2017-05-17T00:35:04.595Z,0
2017-05-17T00:35:45.180Z,0
2017-05-17T00:36:25.762Z,0
2017-05-17T00:37:06.344Z,0
2017-05-17T00:37:46.936Z,0
2017-05-17T00:38:27.508Z,0
2017-05-17T00:39:08.098Z,0
2017-05-17T00:39:48.695Z,0
2017-05-17T00:40:29.297Z,0
2017-05-17T00:41:09.868Z,0
2017-05-17T00:41:50.469Z,0
2017-05-17T00:42:31.096Z,0
2017-05-17T00:43:11.687Z,0
2017-05-17T00:43:52.328Z,0
2017-05-17T00:44:32.913Z,0
2017-05-17T00:45:13.482Z,0
2017-05-17T00:45:54.083Z,0
2017-05-17T00:46:34.664Z,0
2017-05-17T00:47:15.234Z,0
2017-05-17T00:47:55.818Z,0
2017-05-17T00:48:36.400Z,0
2017-05-17T00:49:16.993Z,0
2017-05-17T00:49:57.572Z,0
2017-05-17T00:50:38.131Z,0
2017-05-17T00:51:18.705Z,0
2017-05-17T00:51:59.341Z,0
2017-05-17T00:52:39.981Z,0
2017-05-17T00:53:20.578Z,0
2017-05-17T00:54:01.148Z,0
2017-05-17T00:54:41.761Z,0
2017-05-17T00:55:22.357Z,0
2017-05-17T00:56:02.948Z,0
2017-05-17T00:56:43.531Z,0
2017-05-17T00:57:24.105Z,0
2017-05-17T00:58:04.716Z,0
2017-05-17T00:58:45.288Z,0
2017-05-17T00:59:25.916Z,0
2017-05-17T01:00:06.506Z,0
2017-05-17T01:00:47.124Z,0
2017-05-17T01:01:27.742Z,0
2017-05-17T01:02:08.312Z,0
2017-05-17T01:02:48.914Z,0
2017-05-17T01:03:29.485Z,0
2017-05-17T01:04:10.060Z,0
2017-05-17T01:04:50.654Z,0
2017-05-17T01:05:31.219Z,0
2017-05-17T01:06:11.804Z,0
2017-05-17T01:06:52.428Z,0
2017-05-17T01:07:33.015Z,0
2017-05-17T01:08:13.657Z,0
2017-05-17T01:08:54.182Z,0
2017-05-17T01:09:34.762Z,0
2017-05-17T01:10:15.341Z,0
2017-05-17T01:10:55.918Z,0
2017-05-17T01:11:36.488Z,0
2017-05-17T01:12:17.085Z,0
2017-05-17T01:12:57.648Z,0
2017-05-17T01:13:38.247Z,0
2017-05-17T01:14:18.827Z,0
2017-05-17T01:14:59.433Z,0
2017-05-17T01:15:40.034Z,0
2017-05-17T01:16:20.610Z,0
2017-05-17T01:17:01.206Z,0
2017-05-17T01:17:41.766Z,0
2017-05-17T01:18:22.390Z,0
2017-05-17T01:19:03.029Z,0
2017-05-17T01:19:43.570Z,0
2017-05-17T01:20:24.157Z,0
2017-05-17T01:21:04.763Z,0
2017-05-17T01:21:45.362Z,0
2017-05-17T01:22:25.946Z,0
2017-05-17T01:23:06.541Z,0
2017-05-17T01:23:47.145Z,0
2017-05-17T01:24:27.749Z,0
2017-05-17T01:25:08.349Z,0
2017-05-17T01:25:48.942Z,0
2017-05-17T01:26:29.514Z,0
2017-05-17T01:27:10.110Z,0
2017-05-17T01:27:50.695Z,0
2017-05-17T01:28:31.262Z,0
2017-05-17T01:29:11.863Z,0
2017-05-17T01:29:52.437Z,0
2017-05-17T01:30:33.019Z,0
2017-05-17T01:31:13.609Z,0
2017-05-17T01:31:54.190Z,0
2017-05-17T01:32:34.819Z,0
2017-05-17T01:33:15.389Z,0
2017-05-17T01:33:55.963Z,0
2017-05-17T01:34:36.544Z,0
2017-05-17T01:35:17.128Z,0
2017-05-17T01:35:57.723Z,0
2017-05-17T01:36:38.307Z,0
2017-05-17T01:37:18.880Z,0
2017-05-17T01:37:59.474Z,0
2017-05-17T01:38:40.056Z,0
2017-05-17T01:39:20.657Z,0
2017-05-17T01:40:01.250Z,0
2017-05-17T01:40:41.845Z,0
2017-05-17T01:41:22.454Z,0
2017-05-17T01:42:03.031Z,0
2017-05-17T01:42:43.608Z,0
2017-05-17T01:43:24.203Z,0
2017-05-17T01:44:04.795Z,0
2017-05-17T01:44:45.392Z,0
2017-05-17T01:45:26.012Z,0
2017-05-17T01:46:06.568Z,0
2017-05-17T01:46:47.160Z,0
2017-05-17T01:47:27.780Z,0
2017-05-17T01:48:08.371Z,0
2017-05-17T01:48:49.029Z,0
2017-05-17T01:49:29.627Z,0
2017-05-17T01:50:10.281Z,0
2017-05-17T01:50:50.861Z,0
2017-05-17T01:51:31.458Z,0
2017-05-17T01:52:12.038Z,0
2017-05-17T01:52:52.642Z,0
2017-05-17T01:53:33.235Z,0
2017-05-17T01:54:13.824Z,0
2017-05-17T01:54:54.424Z,0
2017-05-17T01:55:35.000Z,0
2017-05-17T01:56:15.581Z,0
2017-05-17T01:56:56.173Z,0
2017-05-17T01:57:36.770Z,0
2017-05-17T01:58:17.359Z,0
2017-05-17T01:58:57.959Z,0
2017-05-17T01:59:38.597Z,0
2017-05-17T02:00:19.190Z,0
2017-05-17T02:00:59.790Z,0
2017-05-17T02:01:40.393Z,0
2017-05-17T02:02:20.947Z,0
2017-05-17T02:03:01.538Z,0
2017-05-17T02:03:42.137Z,0
2017-05-17T02:04:22.752Z,0
2017-05-17T02:05:03.374Z,0
2017-05-17T02:05:43.984Z,0
2017-05-17T02:06:24.555Z,0
2017-05-17T02:07:05.115Z,0
2017-05-17T02:07:45.699Z,0
2017-05-17T02:08:26.314Z,0
2017-05-17T02:09:06.957Z,0
2017-05-17T02:09:47.500Z,0
2017-05-17T02:10:28.086Z,0
2017-05-17T02:11:08.674Z,0
2017-05-17T02:11:49.245Z,0
2017-05-17T02:12:29.819Z,0
2017-05-17T02:13:10.412Z,0
2017-05-17T02:13:50.999Z,0
2017-05-17T02:14:31.625Z,0
2017-05-17T02:15:12.228Z,0
2017-05-17T02:15:52.817Z,0
2017-05-17T02:16:33.411Z,0
2017-05-17T02:17:14.037Z,0
2017-05-17T02:17:54.638Z,0
2017-05-17T02:18:35.227Z,0
2017-05-17T02:19:15.806Z,0
2017-05-17T02:19:56.379Z,0
2017-05-17T02:20:36.959Z,0
2017-05-17T02:21:17.590Z,0
2017-05-17T02:21:58.166Z,0
2017-05-17T02:22:38.744Z,0
2017-05-17T02:23:19.393Z,0
2017-05-17T02:23:59.982Z,0
2017-05-17T02:24:40.590Z,0
2017-05-17T02:25:21.195Z,0
2017-05-17T02:26:01.810Z,0
2017-05-17T02:26:42.419Z,0
2017-05-17T02:27:23.030Z,0
2017-05-17T02:28:03.603Z,0
2017-05-17T02:28:44.186Z,0
2017-05-17T02:29:24.754Z,0
2017-05-17T02:30:05.336Z,0
2017-05-17T02:30:45.924Z,0
2017-05-17T02:31:26.511Z,0
2017-05-17T02:32:07.101Z,0
2017-05-17T02:32:47.699Z,0
2017-05-17T02:33:28.282Z,0
2017-05-17T02:34:08.861Z,0
2017-05-17T02:34:49.464Z,0
2017-05-17T02:35:30.060Z,0
2017-05-17T02:36:10.661Z,0
2017-05-17T02:36:51.230Z,0
2017-05-17T02:37:31.817Z,0
2017-05-17T02:38:12.414Z,0
2017-05-17T02:38:52.991Z,0
2017-05-17T02:39:33.594Z,0
2017-05-17T02:40:14.161Z,0
2017-05-17T02:40:54.750Z,0
2017-05-17T02:41:35.322Z,0
2017-05-17T02:42:15.964Z,0
2017-05-17T02:42:56.535Z,0
2017-05-17T02:43:37.126Z,0
2017-05-17T02:44:17.715Z,0
2017-05-17T02:44:58.310Z,0
2017-05-17T02:45:38.881Z,0
2017-05-17T02:46:19.449Z,0
2017-05-17T02:47:00.045Z,0
2017-05-17T02:47:40.631Z,0
2017-05-17T02:48:21.212Z,0
2017-05-17T02:49:01.801Z,0
2017-05-17T02:49:42.386Z,0
2017-05-17T02:50:22.958Z,0
2017-05-17T02:51:03.535Z,0
2017-05-17T02:51:44.097Z,0
2017-05-17T02:52:24.692Z,0
2017-05-17T02:53:05.324Z,0
2017-05-17T02:53:45.854Z,0
2017-05-17T02:54:26.456Z,0
2017-05-17T02:55:07.035Z,0
2017-05-17T02:55:47.622Z,0
2017-05-17T02:56:28.188Z,0
2017-05-17T02:57:08.775Z,0
2017-05-17T02:57:49.369Z,0
2017-05-17T02:58:29.949Z,0
2017-05-17T02:59:10.554Z,0
2017-05-17T02:59:51.144Z,0
2017-05-17T03:00:31.727Z,0
2017-05-17T03:01:12.336Z,0
2017-05-17T03:01:52.903Z,0
2017-05-17T03:02:33.488Z,0
2017-05-17T03:03:14.089Z,0
2017-05-17T03:03:54.687Z,0
2017-05-17T03:04:35.275Z,0
2017-05-17T03:05:15.883Z,0
2017-05-17T03:05:56.479Z,0
2017-05-17T03:06:37.099Z,0
2017-05-17T03:07:17.691Z,0
2017-05-17T03:07:58.278Z,0
2017-05-17T03:08:38.856Z,0
2017-05-17T03:09:19.457Z,0
2017-05-17T03:10:00.060Z,0
2017-05-17T03:10:40.651Z,0
2017-05-17T03:11:21.251Z,0
2017-05-17T03:12:01.826Z,0
2017-05-17T03:12:42.426Z,0
2017-05-17T03:13:23.020Z,0
2017-05-17T03:14:03.591Z,0
2017-05-17T03:14:44.185Z,0
2017-05-17T03:15:24.768Z,0
2017-05-17T03:16:05.347Z,0
2017-05-17T03:16:45.942Z,0
2017-05-17T03:17:26.511Z,0
2017-05-17T03:18:07.100Z,0
2017-05-17T03:18:47.704Z,0
2017-05-17T03:19:28.267Z,0
2017-05-17T03:20:08.854Z,0
2017-05-17T03:20:49.463Z,0
2017-05-17T03:21:30.055Z,0
2017-05-17T03:22:10.670Z,0
2017-05-17T03:22:51.225Z,0
2017-05-17T03:23:31.800Z,0
2017-05-17T03:24:12.393Z,5
2017-05-17T03:24:53.014Z,5
2017-05-17T03:25:33.600Z,5
2017-05-17T03:26:14.190Z,5
2017-05-17T03:26:54.781Z,5
2017-05-17T03:27:35.364Z,5
2017-05-17T03:28:15.982Z,5
2017-05-17T03:28:56.532Z,5
2017-05-17T03:29:37.115Z,5
2017-05-17T03:30:17.696Z,5
2017-05-17T03:30:58.281Z,5
2017-05-17T03:31:38.861Z,5
2017-05-17T03:32:19.476Z,5
2017-05-17T03:33:00.081Z,5
2017-05-17T03:33:40.665Z,10
2017-05-17T03:34:21.238Z,10
2017-05-17T03:35:01.822Z,10
2017-05-17T03:35:42.396Z,10
2017-05-17T03:36:22.998Z,10
2017-05-17T03:37:03.598Z,10
2017-05-17T03:37:44.178Z,10
2017-05-17T03:38:24.751Z,15
2017-05-17T03:39:05.331Z,15
2017-05-17T03:39:45.925Z,15
2017-05-17T03:40:26.497Z,15
2017-05-17T03:41:07.099Z,15
2017-05-17T03:41:47.730Z,15
2017-05-17T03:42:28.350Z,20
2017-05-17T03:43:08.943Z,20
2017-05-17T03:43:49.523Z,20
2017-05-17T03:44:30.103Z,20
2017-05-17T03:45:10.701Z,20
2017-05-17T03:45:51.284Z,20
2017-05-17T03:46:31.850Z,20
2017-05-17T03:47:12.432Z,20
2017-05-17T03:47:53.003Z,25
2017-05-17T03:48:33.591Z,25
2017-05-17T03:49:14.177Z,25
2017-05-17T03:49:54.762Z,25
2017-05-17T03:50:35.338Z,25
2017-05-17T03:51:15.918Z,25
2017-05-17T03:51:56.538Z,25
2017-05-17T03:52:37.129Z,25
2017-05-17T03:53:17.645Z,30
2017-05-17T03:53:58.222Z,30
2017-05-17T03:54:38.815Z,30
2017-05-17T03:55:19.409Z,30
2017-05-17T03:55:59.992Z,30
2017-05-17T03:56:40.568Z,35
2017-05-17T03:57:21.156Z,35
2017-05-17T03:58:01.733Z,35
2017-05-17T03:58:42.319Z,35
2017-05-17T03:59:22.902Z,35
2017-05-17T04:00:03.497Z,35
2017-05-17T04:00:44.074Z,40
2017-05-17T04:01:24.672Z,40
2017-05-17T04:02:05.248Z,40
2017-05-17T04:02:45.820Z,40
2017-05-17T04:03:26.425Z,40
2017-05-17T04:04:06.997Z,40
2017-05-17T04:04:47.581Z,40
2017-05-17T04:05:28.186Z,40
2017-05-17T04:06:08.768Z,40
2017-05-17T04:06:49.368Z,45
2017-05-17T04:07:29.959Z,45
2017-05-17T04:08:10.554Z,45
2017-05-17T04:08:51.137Z,45
2017-05-17T04:09:31.724Z,45
2017-05-17T04:10:12.330Z,50
2017-05-17T04:10:52.915Z,50
2017-05-17T04:11:33.510Z,50
2017-05-17T04:12:14.085Z,50
2017-05-17T04:12:54.709Z,50
2017-05-17T04:13:35.311Z,50
2017-05-17T04:14:15.897Z,50
2017-05-17T04:14:56.502Z,55
2017-05-17T04:15:37.096Z,55
2017-05-17T04:16:17.676Z,55
2017-05-17T04:16:58.261Z,55
2017-05-17T04:17:38.890Z,60
2017-05-17T04:18:19.482Z,60
2017-05-17T04:19:00.111Z,60
2017-05-17T04:19:40.727Z,60
2017-05-17T04:20:21.309Z,60
2017-05-17T04:21:01.922Z,65
2017-05-17T04:21:42.488Z,65
2017-05-17T04:22:23.064Z,65
2017-05-17T04:23:03.656Z,70
2017-05-17T04:23:44.247Z,70
2017-05-17T04:24:24.846Z,70
2017-05-17T04:25:05.428Z,70
2017-05-17T04:25:46.002Z,75
2017-05-17T04:26:26.570Z,75
2017-05-17T04:27:07.148Z,75
2017-05-17T04:27:47.717Z,75
2017-05-17T04:28:28.348Z,75
2017-05-17T04:29:08.974Z,75
2017-05-17T04:29:49.606Z,80
2017-05-17T04:30:30.168Z,80
2017-05-17T04:31:10.777Z,80
2017-05-17T04:31:51.375Z,85
2017-05-17T04:32:31.942Z,85
2017-05-17T04:33:12.533Z,85
2017-05-17T04:33:53.131Z,90
2017-05-17T04:34:33.716Z,90
2017-05-17T04:35:14.288Z,90
2017-05-17T04:35:54.894Z,90
2017-05-17T04:36:35.493Z,95
2017-05-17T04:37:16.087Z,95
2017-05-17T04:37:56.674Z,95
2017-05-17T04:38:37.247Z,95
2017-05-17T04:39:17.850Z,100
2017-05-17T04:39:58.437Z,100
2017-05-17T04:40:39.023Z,100
2017-05-17T04:41:19.622Z,100
2017-05-17T04:42:00.223Z,100
2017-05-17T04:42:40.809Z,100
2017-05-17T04:43:21.435Z,95
2017-05-17T04:44:02.043Z,95
2017-05-17T04:44:42.647Z,95
2017-05-17T04:45:23.299Z,100
2017-05-17T04:46:03.907Z,100
2017-05-17T04:46:44.525Z,100
2017-05-17T04:47:25.144Z,100
2017-05-17T04:48:05.738Z,100
2017-05-17T04:48:46.326Z,100
2017-05-17T04:49:26.898Z,100
2017-05-17T04:50:07.501Z,105
2017-05-17T04:50:48.122Z,105
2017-05-17T04:51:28.663Z,105
2017-05-17T04:52:09.289Z,105
2017-05-17T04:52:49.962Z,110
2017-05-17T04:53:30.560Z,110
2017-05-17T04:54:11.134Z,110
2017-05-17T04:54:51.760Z,110
2017-05-17T04:55:32.344Z,110
2017-05-17T04:56:12.948Z,110
2017-05-17T04:56:53.549Z,110
2017-05-17T04:57:34.145Z,115
2017-05-17T04:58:14.716Z,115
2017-05-17T04:58:55.307Z,115
2017-05-17T04:59:35.885Z,115
2017-05-17T05:00:16.490Z,120
2017-05-17T05:00:57.095Z,120
2017-05-17T05:01:37.694Z,125
2017-05-17T05:02:18.298Z,130
2017-05-17T05:02:58.870Z,130
2017-05-17T05:03:39.450Z,130
2017-05-17T05:04:20.068Z,130
2017-05-17T05:05:00.646Z,135
2017-05-17T05:05:41.256Z,135
2017-05-17T05:06:21.835Z,135
2017-05-17T05:07:02.440Z,140
2017-05-17T05:07:43.034Z,145
2017-05-17T05:08:23.644Z,145
2017-05-17T05:09:04.214Z,145
2017-05-17T05:09:44.810Z,145
2017-05-17T05:10:25.422Z,145
2017-05-17T05:11:06.014Z,150
2017-05-17T05:11:46.617Z,150
2017-05-17T05:12:27.204Z,145
2017-05-17T05:13:07.823Z,145
2017-05-17T05:13:48.395Z,140
2017-05-17T05:14:28.983Z,140
2017-05-17T05:15:09.596Z,140
2017-05-17T05:15:50.184Z,140
2017-05-17T05:16:30.800Z,140
2017-05-17T05:17:11.450Z,140
2017-05-17T05:17:52.083Z,140
2017-05-17T05:18:32.714Z,140
2017-05-17T05:19:13.291Z,145
2017-05-17T05:19:53.878Z,145
2017-05-17T05:20:34.479Z,135
2017-05-17T05:21:15.232Z,135
2017-05-17T05:21:55.840Z,135
2017-05-17T05:22:36.432Z,130
2017-05-17T05:23:17.027Z,135
2017-05-17T05:23:57.653Z,135
2017-05-17T05:24:38.284Z,140
2017-05-17T05:25:18.855Z,140
2017-05-17T05:25:59.446Z,155
2017-05-17T05:26:40.041Z,165
2017-05-17T05:27:20.624Z,160
2017-05-17T05:28:01.228Z,175
2017-05-17T05:28:41.932Z,195
2017-05-17T05:29:22.503Z,200
2017-05-17T05:30:03.080Z,200
2017-05-17T05:30:43.666Z,205
2017-05-17T05:31:24.262Z,215
2017-05-17T05:32:04.851Z,240
2017-05-17T05:32:45.438Z,355
2017-05-17T05:33:26.041Z,750
2017-05-17T05:34:06.604Z,1210
2017-05-17T05:34:47.173Z,1340
2017-05-17T05:35:27.784Z,700
2017-05-17T05:36:08.373Z,455
2017-05-17T05:36:48.948Z,505
2017-05-17T05:37:29.537Z,1135
2017-05-17T05:38:10.141Z,1555
2017-05-17T05:38:50.714Z,1685
2017-05-17T05:39:31.290Z,1725
2017-05-17T05:40:11.871Z,1750
2017-05-17T05:40:52.459Z,1800
2017-05-17T05:41:33.038Z,1800
2017-05-17T05:42:13.677Z,1740
2017-05-17T05:42:54.348Z,1530
2017-05-17T05:43:34.940Z,1690
2017-05-17T05:44:15.511Z,1750
2017-05-17T05:44:56.091Z,1770
2017-05-17T05:45:36.685Z,1770
2017-05-17T05:46:17.278Z,1765
2017-05-17T05:46:57.864Z,1770
2017-05-17T05:47:38.446Z,1805
2017-05-17T05:48:19.069Z,1810
2017-05-17T05:48:59.657Z,1805
2017-05-17T05:49:40.276Z,1785
2017-05-17T05:50:20.878Z,1750
2017-05-17T05:51:01.475Z,1715
2017-05-17T05:51:42.066Z,1620
2017-05-17T05:52:22.639Z,1595
2017-05-17T05:53:03.218Z,1710
2017-05-17T05:53:43.815Z,1770
2017-05-17T05:54:24.429Z,1745
2017-05-17T05:55:05.021Z,1715
2017-05-17T05:55:45.606Z,1705
2017-05-17T05:56:26.203Z,1650
2017-05-17T05:57:06.795Z,1640
2017-05-17T05:57:47.427Z,1670
2017-05-17T05:58:27.975Z,1745
2017-05-17T05:59:08.593Z,1835
2017-05-17T05:59:49.176Z,1815
2017-05-17T06:00:29.786Z,1775
2017-05-17T06:01:10.375Z,1710
2017-05-17T06:01:50.994Z,1760
2017-05-17T06:02:31.582Z,1805
2017-05-17T06:03:12.178Z,1825
2017-05-17T06:03:52.801Z,1830
2017-05-17T06:04:33.392Z,1805
2017-05-17T06:05:13.969Z,1810
2017-05-17T06:05:54.571Z,1850
2017-05-17T06:06:35.201Z,1655
2017-05-17T06:07:15.826Z,1625
2017-05-17T06:07:56.436Z,1645
2017-05-17T06:08:37.042Z,1705
2017-05-17T06:09:17.626Z,1720
2017-05-17T06:09:58.214Z,1670
2017-05-17T06:10:38.814Z,1765
2017-05-17T06:11:19.451Z,1785
2017-05-17T06:12:00.067Z,1715
2017-05-17T06:12:40.717Z,1710
2017-05-17T06:13:21.665Z,1695
2017-05-17T06:14:02.258Z,1670
2017-05-17T06:14:42.858Z,1700
2017-05-17T06:15:23.457Z,1720
2017-05-17T06:16:04.035Z,1560
2017-05-17T06:16:44.625Z,1460
2017-05-17T06:17:25.215Z,1575
2017-05-17T06:18:05.837Z,1655
2017-05-17T06:18:47.089Z,1665
2017-05-17T06:19:27.695Z,1735
2017-05-17T06:20:08.823Z,1885
2017-05-17T06:20:49.464Z,1825
2017-05-17T06:21:30.054Z,1730
2017-05-17T06:22:10.647Z,1665
2017-05-17T06:22:51.667Z,1770
2017-05-17T06:23:32.261Z,1790
2017-05-17T06:24:12.846Z,1760
2017-05-17T06:24:53.451Z,1660
2017-05-17T06:25:34.174Z,1585
2017-05-17T06:26:15.134Z,1645
2017-05-17T06:26:56.239Z,1655
2017-05-17T06:27:37.190Z,1715
2017-05-17T06:28:18.014Z,1705
2017-05-17T06:28:58.600Z,1780
2017-05-17T06:29:39.300Z,1780
2017-05-17T06:30:19.949Z,1820
2017-05-17T06:31:00.576Z,1855
2017-05-17T06:31:41.160Z,1840
2017-05-17T06:32:21.745Z,1855
2017-05-17T06:33:02.343Z,1855
2017-05-17T06:33:42.957Z,1845
2017-05-17T06:34:23.611Z,1900
2017-05-17T06:35:04.236Z,1950
2017-05-17T06:35:44.835Z,1975
2017-05-17T06:36:25.434Z,1950
2017-05-17T06:37:06.005Z,1930
2017-05-17T06:37:46.603Z,1900
2017-05-17T06:38:27.192Z,1905
2017-05-17T06:39:07.817Z,1900
2017-05-17T06:39:48.413Z,1875
2017-05-17T06:40:28.995Z,1795
2017-05-17T06:41:09.576Z,1795
2017-05-17T06:41:50.176Z,1800
2017-05-17T06:42:30.761Z,1850
2017-05-17T06:43:11.366Z,1870
2017-05-17T06:43:52.000Z,1830
2017-05-17T06:44:32.599Z,1810
2017-05-17T06:45:13.190Z,1805
2017-05-17T06:45:53.777Z,1795
2017-05-17T06:46:34.392Z,1830
2017-05-17T06:47:15.002Z,1810
2017-05-17T06:47:55.597Z,1805
2017-05-17T06:48:36.188Z,1905
2017-05-17T06:49:16.792Z,1915
2017-05-17T06:49:57.381Z,1885
2017-05-17T06:50:37.960Z,1895
2017-05-17T06:51:18.572Z,1855
2017-05-17T06:51:59.166Z,1920
2017-05-17T06:52:39.763Z,1940
2017-05-17T06:53:20.334Z,1860
2017-05-17T06:54:00.933Z,1850
2017-05-17T06:54:41.513Z,1925
2017-05-17T06:55:22.091Z,1950
2017-05-17T06:56:02.690Z,1845
2017-05-17T06:56:43.285Z,1785
2017-05-17T06:57:23.878Z,1780
2017-05-17T06:58:04.494Z,1795
2017-05-17T06:58:45.093Z,1825
2017-05-17T06:59:34.341Z,1840
2017-05-17T07:00:29.789Z,1855
2017-05-17T07:01:10.440Z,1850
2017-05-17T07:01:51.036Z,1805
2017-05-17T07:02:31.629Z,1835
2017-05-17T07:03:12.216Z,1790
2017-05-17T07:03:52.835Z,1640
2017-05-17T07:04:33.440Z,1560
2017-05-17T07:05:14.076Z,1515
2017-05-17T07:05:54.682Z,1430
2017-05-17T07:06:35.271Z,1355
2017-05-17T07:07:15.874Z,1240
2017-05-17T07:07:56.464Z,1165
2017-05-17T07:08:37.048Z,1090
2017-05-17T07:09:17.663Z,995
2017-05-17T07:09:58.270Z,930
2017-05-17T07:10:38.866Z,900
2017-05-17T07:11:19.455Z,830
2017-05-17T07:12:00.115Z,790
2017-05-17T07:12:40.676Z,760
2017-05-17T07:13:21.274Z,715
2017-05-17T07:14:01.846Z,680
2017-05-17T07:14:43.071Z,650
2017-05-17T07:15:23.667Z,625
2017-05-17T07:16:04.279Z,630
2017-05-17T07:16:44.869Z,620
2017-05-17T07:17:25.482Z,625
2017-05-17T07:18:06.084Z,600
2017-05-17T07:18:46.764Z,590
2017-05-17T07:19:27.413Z,595
2017-05-17T07:20:08.048Z,595
2017-05-17T07:20:48.663Z,600
2017-05-17T07:21:29.261Z,600
2017-05-17T07:22:09.879Z,595
2017-05-17T07:22:50.477Z,595
2017-05-17T07:23:31.082Z,585
2017-05-17T07:24:11.721Z,570
2017-05-17T07:24:52.317Z,575
2017-05-17T07:25:32.900Z,550
2017-05-17T07:26:13.478Z,485
2017-05-17T07:26:54.057Z,495
2017-05-17T07:27:34.660Z,565
2017-05-17T07:28:15.263Z,570
2017-05-17T07:28:55.862Z,570
2017-05-17T07:29:36.455Z,570
2017-05-17T07:30:17.063Z,580
2017-05-17T07:30:57.650Z,585
2017-05-17T07:31:38.257Z,585
2017-05-17T07:32:18.852Z,580
2017-05-17T07:32:59.473Z,575
2017-05-17T07:33:40.062Z,570
2017-05-17T07:34:20.645Z,570
2017-05-17T07:35:01.265Z,570
2017-05-17T07:35:41.872Z,570
2017-05-17T07:36:22.469Z,570
2017-05-17T07:37:03.101Z,565
2017-05-17T07:37:43.674Z,565
2017-05-17T07:38:24.272Z,565
2017-05-17T07:39:05.280Z,560
2017-05-17T07:39:45.852Z,545
2017-05-17T07:40:26.487Z,535
2017-05-17T07:41:07.122Z,530
2017-05-17T07:41:47.754Z,520
2017-05-17T07:42:28.370Z,510
2017-05-17T07:43:09.030Z,510
2017-05-17T07:43:49.598Z,505
2017-05-17T07:44:30.210Z,505
2017-05-17T07:45:10.881Z,505
2017-05-17T07:45:51.512Z,495
2017-05-17T07:46:32.304Z,500
2017-05-17T07:47:12.904Z,490
2017-05-17T07:47:53.554Z,505
2017-05-17T07:48:34.191Z,510
2017-05-17T07:49:14.993Z,520
2017-05-17T07:49:55.686Z,525
2017-05-17T07:50:36.254Z,525
2017-05-17T07:51:17.023Z,520
2017-05-17T07:51:57.656Z,520
2017-05-17T07:52:38.378Z,525
2017-05-17T07:53:18.926Z,520
2017-05-17T07:53:59.594Z,515
2017-05-17T07:54:40.180Z,500
2017-05-17T07:55:20.768Z,480
2017-05-17T07:56:01.582Z,470
2017-05-17T07:56:42.230Z,460
2017-05-17T07:57:22.974Z,435
2017-05-17T07:58:03.469Z,405
2017-05-17T07:58:44.090Z,385
2017-05-17T07:59:24.702Z,385
2017-05-17T08:00:05.341Z,385
2017-05-17T08:00:45.987Z,375
2017-05-17T08:01:26.618Z,380
2017-05-17T08:02:07.274Z,375
2017-05-17T08:02:47.872Z,370
2017-05-17T08:03:28.476Z,360
2017-05-17T08:04:09.127Z,365
2017-05-17T08:04:49.853Z,365
2017-05-17T08:05:30.500Z,360
2017-05-17T08:06:11.134Z,355
2017-05-17T08:06:51.889Z,350
2017-05-17T08:07:32.517Z,350
2017-05-17T08:08:13.147Z,350
2017-05-17T08:08:53.746Z,350
2017-05-17T08:09:34.395Z,345
2017-05-17T08:10:15.041Z,340
2017-05-17T08:10:55.666Z,340
2017-05-17T08:11:36.284Z,335
2017-05-17T08:12:16.895Z,315
2017-05-17T08:12:57.519Z,315
2017-05-17T08:13:38.115Z,320
2017-05-17T08:14:18.792Z,310
2017-05-17T08:14:59.410Z,285
2017-05-17T08:15:40.026Z,250
2017-05-17T08:16:20.683Z,240
2017-05-17T08:17:01.310Z,245
2017-05-17T08:17:41.981Z,250
2017-05-17T08:18:22.620Z,270
2017-05-17T08:19:03.284Z,275
2017-05-17T08:19:43.846Z,275
2017-05-17T08:20:24.457Z,285
2017-05-17T08:21:05.127Z,290
2017-05-17T08:21:45.785Z,285
2017-05-17T08:22:26.433Z,285
2017-05-17T08:23:07.044Z,280
2017-05-17T08:23:47.668Z,265
2017-05-17T08:24:28.273Z,260
2017-05-17T08:25:09.005Z,245
2017-05-17T08:25:49.603Z,240
2017-05-17T08:26:30.194Z,240
2017-05-17T08:27:10.804Z,230
2017-05-17T08:27:51.527Z,225
2017-05-17T08:28:32.161Z,225
2017-05-17T08:29:12.791Z,220
2017-05-17T08:29:53.621Z,235
2017-05-17T08:30:34.265Z,235
2017-05-17T08:31:14.892Z,235
2017-05-17T08:31:55.502Z,235
2017-05-17T08:32:36.131Z,230
2017-05-17T08:33:16.787Z,225
2017-05-17T08:33:57.433Z,220
2017-05-17T08:34:38.188Z,220
2017-05-17T08:35:18.830Z,215
2017-05-17T08:35:59.471Z,215
2017-05-17T08:36:40.211Z,215
2017-05-17T08:37:20.861Z,215
2017-05-17T08:38:01.462Z,215
2017-05-17T08:38:42.182Z,210
2017-05-17T08:39:22.794Z,210
2017-05-17T08:40:03.462Z,205
2017-05-17T08:40:44.101Z,205
2017-05-17T08:41:24.655Z,200
2017-05-17T08:42:05.262Z,200
2017-05-17T08:42:45.852Z,195
2017-05-17T08:43:26.641Z,195
2017-05-17T08:44:07.314Z,190
2017-05-17T08:44:48.036Z,185
2017-05-17T08:45:28.595Z,185
2017-05-17T08:46:09.300Z,185
2017-05-17T08:46:49.809Z,185
2017-05-17T08:47:30.688Z,180
2017-05-17T08:48:11.214Z,175
2017-05-17T08:48:51.885Z,175
2017-05-17T08:49:32.445Z,175
2017-05-17T08:50:13.168Z,175
2017-05-17T08:50:53.804Z,170
2017-05-17T08:51:34.558Z,170
2017-05-17T08:52:15.328Z,170
2017-05-17T08:52:55.947Z,165
2017-05-17T08:53:36.633Z,165
2017-05-17T08:54:17.193Z,165
2017-05-17T08:54:58.526Z,160
2017-05-17T08:55:39.068Z,160
2017-05-17T08:56:19.686Z,160
2017-05-17T08:57:00.372Z,155
2017-05-17T08:57:41.045Z,155
2017-05-17T08:58:21.602Z,155
2017-05-17T08:59:02.464Z,155
2017-05-17T08:59:42.981Z,155
2017-05-17T09:00:23.596Z,150
2017-05-17T09:01:04.426Z,150
2017-05-17T09:01:45.528Z,145
2017-05-17T09:02:26.113Z,140
2017-05-17T09:03:06.771Z,140
2017-05-17T09:03:47.687Z,145
2017-05-17T09:04:28.370Z,145
2017-05-17T09:05:09.052Z,145
2017-05-17T09:05:49.680Z,145
2017-05-17T09:06:30.281Z,145
2017-05-17T09:07:10.917Z,145
2017-05-17T09:07:51.554Z,145
2017-05-17T09:08:32.208Z,145
2017-05-17T09:09:12.829Z,145
2017-05-17T09:09:53.501Z,140
2017-05-17T09:10:34.171Z,140
2017-05-17T09:11:14.798Z,140
2017-05-17T09:11:55.561Z,140
2017-05-17T09:12:36.851Z,140
2017-05-17T09:13:17.429Z,140
2017-05-17T09:13:58.040Z,140
2017-05-17T09:14:38.655Z,140
2017-05-17T09:15:19.254Z,140
2017-05-17T09:15:59.845Z,135
2017-05-17T09:16:40.474Z,135
2017-05-17T09:17:21.596Z,135
2017-05-17T09:18:02.215Z,135
2017-05-17T09:18:42.869Z,135
2017-05-17T09:19:23.504Z,135
2017-05-17T09:20:04.109Z,135
2017-05-17T09:20:44.697Z,130
2017-05-17T09:21:25.287Z,135
2017-05-17T09:22:05.891Z,130
2017-05-17T09:22:46.486Z,130
2017-05-17T09:23:27.078Z,130
2017-05-17T09:24:07.680Z,130
2017-05-17T09:24:48.252Z,130
2017-05-17T09:25:28.847Z,130
2017-05-17T09:26:09.475Z,130
2017-05-17T09:26:50.084Z,125
2017-05-17T09:27:30.655Z,125
2017-05-17T09:28:11.347Z,125
2017-05-17T09:28:51.935Z,125
2017-05-17T09:29:32.536Z,125
2017-05-17T09:30:13.166Z,125
2017-05-17T09:30:53.852Z,125
2017-05-17T09:31:34.366Z,125
2017-05-17T09:32:14.956Z,125
2017-05-17T09:32:55.530Z,125
2017-05-17T09:33:36.117Z,125